Time;durP1;ratioP1;P1;durP2;ratioP2;P2;SDS_P1;SDS_P2;PMS_P1;PMS_P2;Temp;Humidity;BMP_temperature;BMP_pressure;BME280_temperature;BME280_humidity;BME280_pressure;Samples;Min_cycle;Max_cycle;Signal;HPM_P1;HPM_P2
2023/12/06 00:01:39;;;;;;;19.42;8.50;;;;;;;-5.79;100.00;99976.00;5119182;28;20083;-60
2023/12/06 00:04:06;;;;;;;17.30;6.97;;;;;;;-5.63;100.00;100023.34;5116622;28;20055;-56
2023/12/06 00:06:33;;;;;;;17.90;8.18;;;;;;;-5.10;100.00;100026.69;5116879;28;20083;-58
2023/12/06 00:08:59;;;;;;;26.92;8.88;;;;;;;-5.32;100.00;99983.84;5102049;28;20087;-58
2023/12/06 00:11:26;;;;;;;20.30;8.30;;;;;;;-5.45;100.00;99974.25;5116577;28;20071;-57
2023/12/06 00:13:52;;;;;;;21.77;8.48;;;;;;;-5.65;100.00;99989.91;5118689;28;20142;-59
2023/12/06 00:16:19;;;;;;;25.40;9.20;;;;;;;-5.49;100.00;99999.84;5116477;28;20083;-57
2023/12/06 00:18:45;;;;;;;20.70;8.43;;;;;;;-5.47;100.00;100019.09;5118762;28;20105;-53
2023/12/06 00:21:12;;;;;;;17.73;8.32;;;;;;;-5.39;100.00;100021.41;5116399;28;20063;-57
2023/12/06 00:23:39;;;;;;;16.58;8.07;;;;;;;-5.20;100.00;100011.28;5118644;28;20087;-56
2023/12/06 00:26:05;;;;;;;26.63;9.60;;;;;;;-5.37;100.00;99973.03;5116137;28;20146;-56
2023/12/06 00:28:33;;;;;;;19.80;8.50;;;;;;;-5.10;100.00;99951.84;5118745;28;20051;-55
2023/12/06 00:30:59;;;;;;;18.10;8.02;;;;;;;-5.14;100.00;99907.94;5116046;28;20051;-60
2023/12/06 00:33:25;;;;;;;17.95;8.25;;;;;;;-5.59;100.00;99896.25;5117677;28;20087;-56
2023/12/06 00:35:52;;;;;;;19.80;7.55;;;;;;;-5.72;100.00;99924.06;5117173;28;20134;-61
2023/12/06 00:38:18;;;;;;;15.70;6.40;;;;;;;-5.95;100.00;99946.38;5116186;28;20098;-60
2023/12/06 00:40:45;;;;;;;17.65;7.93;;;;;;;-5.64;100.00;99996.84;5118159;28;20148;-58
2023/12/06 00:43:11;;;;;;;17.45;7.80;;;;;;;-5.25;100.00;100025.38;5116046;28;20406;-61
2023/12/06 00:45:38;;;;;;;17.48;7.53;;;;;;;-5.75;100.00;99977.16;5118204;28;20152;-59
2023/12/06 00:48:04;;;;;;;10.23;4.68;;;;;;;-6.33;100.00;99973.63;5115167;28;20055;-57
2023/12/06 00:50:31;;;;;;;17.65;7.32;;;;;;;-5.70;100.00;100050.19;5118630;28;20083;-58
2023/12/06 00:52:57;;;;;;;16.80;7.15;;;;;;;-5.70;100.00;100042.19;5115708;28;20095;-60
2023/12/06 00:55:23;;;;;;;15.25;7.07;;;;;;;-5.59;100.00;100029.84;5118182;28;20147;-57
2023/12/06 00:57:50;;;;;;;15.05;7.32;;;;;;;-5.80;100.00;100004.56;5115793;28;20148;-59
2023/12/06 01:00:18;;;;;;;15.77;6.85;;;;;;;-5.74;100.00;100019.63;5118188;28;20116;-56
2023/12/06 01:02:44;;;;;;;18.17;8.15;;;;;;;-5.69;100.00;100024.28;5115718;28;20196;-56
2023/12/06 01:05:11;;;;;;;19.02;6.65;;;;;;;-5.83;100.00;100022.91;5115519;28;20052;-58
2023/12/06 01:07:37;;;;;;;18.80;6.38;;;;;;;-5.99;100.00;100005.81;5117682;28;20493;-56
2023/12/06 01:10:04;;;;;;;21.42;8.88;;;;;;;-5.96;100.00;100024.03;5115371;28;20056;-59
2023/12/06 01:12:31;;;;;;;18.88;8.00;;;;;;;-6.22;100.00;100033.34;5117633;28;20066;-57
2023/12/06 01:14:58;;;;;;;18.95;8.43;;;;;;;-6.21;100.00;100061.66;5115453;28;20379;-57
2023/12/06 01:17:24;;;;;;;15.27;7.70;;;;;;;-6.14;100.00;100077.56;5117657;28;20051;-57
2023/12/06 01:19:50;;;;;;;16.95;7.28;;;;;;;-6.31;100.00;100082.78;5115254;28;20059;-56
2023/12/06 01:22:16;;;;;;;16.60;6.60;;;;;;;-6.17;100.00;100106.31;5117721;28;20106;-58
2023/12/06 01:24:43;;;;;;;17.98;6.90;;;;;;;-6.35;100.00;100103.78;5115327;28;20052;-53
2023/12/06 01:27:09;;;;;;;15.75;7.78;;;;;;;-6.02;100.00;100127.22;5117696;28;20055;-58
2023/12/06 01:29:35;;;;;;;19.35;9.57;;;;;;;-5.94;100.00;100105.50;5115062;28;20417;-58
2023/12/06 01:32:03;;;;;;;20.33;8.27;;;;;;;-6.01;100.00;100106.69;5115749;28;20091;-56
2023/12/06 01:34:29;;;;;;;17.58;7.97;;;;;;;-6.23;100.00;100087.75;5117387;28;20150;-58
2023/12/06 01:36:56;;;;;;;18.73;8.82;;;;;;;-5.96;100.00;100104.94;5115019;28;20059;-59
2023/12/06 01:39:22;;;;;;;26.38;9.88;;;;;;;-6.11;100.00;100082.44;5117197;28;20101;-53
2023/12/06 01:41:48;;;;;;;20.73;9.40;;;;;;;-5.85;100.00;100081.91;5115193;28;20051;-59
2023/12/06 01:44:15;;;;;;;24.55;10.25;;;;;;;-6.01;100.00;100053.28;5117065;28;20067;-59
2023/12/06 01:46:42;;;;;;;26.30;9.02;;;;;;;-6.14;100.00;100048.19;5115032;28;20138;-54
2023/12/06 01:49:12;;;;;;;24.15;9.20;;;;;;;-6.22;100.00;100066.19;5117412;28;20138;-54
2023/12/06 01:51:39;;;;;;;18.88;8.38;;;;;;;-6.03;100.00;100064.22;5114823;28;20063;-59
2023/12/06 01:54:06;;;;;;;23.33;9.45;;;;;;;-5.76;100.00;100059.16;5117355;28;20097;-56
2023/12/06 01:56:33;;;;;;;20.80;8.82;;;;;;;-5.96;100.00;100018.69;5114768;28;20453;-56
2023/12/06 01:58:59;;;;;;;21.42;9.27;;;;;;;-5.91;100.00;100002.75;5115929;28;20086;-56
2023/12/06 02:01:26;;;;;;;25.80;9.15;;;;;;;-6.08;100.00;99984.00;5115198;28;20345;-55
2023/12/06 02:03:52;;;;;;;22.10;8.88;;;;;;;-5.94;100.00;100001.38;5115146;28;20453;-59
2023/12/06 02:06:19;;;;;;;22.52;9.38;;;;;;;-6.03;100.00;99991.28;5116865;28;20093;-54
2023/12/06 02:08:47;;;;;;;25.25;10.02;;;;;;;-5.79;100.00;99982.16;5114741;28;20134;-54
2023/12/06 02:11:13;;;;;;;10.05;5.03;;;;;;;-5.97;100.00;99964.47;5116867;28;20047;-56
2023/12/06 02:13:39;;;;;;;11.40;6.05;;;;;;;-6.33;100.00;99940.75;5114570;28;20138;-58
2023/12/06 02:16:07;;;;;;;14.95;7.00;;;;;;;-6.11;100.00;99956.97;5117136;28;20094;-59
2023/12/06 02:18:34;;;;;;;16.85;6.75;;;;;;;-6.11;100.00;99955.13;5114934;28;20083;-59
2023/12/06 02:21:00;;;;;;;18.13;7.97;;;;;;;-5.91;100.00;99955.47;5117017;28;20169;-59
2023/12/06 02:23:32;;;;;;;14.40;6.70;;;;;;;-5.92;100.00;99927.16;5114346;28;20056;-57
2023/12/06 02:26:00;;;;;;;21.92;8.15;;;;;;;-5.88;100.00;99924.84;5115827;28;20094;-57
2023/12/06 02:28:26;;;;;;;16.02;7.78;;;;;;;-5.92;100.00;99886.31;5115859;28;20094;-55
2023/12/06 02:30:52;;;;;;;19.90;8.25;;;;;;;-5.73;100.00;99879.72;5114574;28;20071;-59
2023/12/06 02:33:19;;;;;;;15.55;7.10;;;;;;;-5.91;100.00;99870.03;5116694;28;20128;-55
2023/12/06 02:35:49;;;;;;;20.52;8.38;;;;;;;-6.13;100.00;99852.28;5114538;28;20138;-58
2023/12/06 02:38:18;;;;;;;13.13;5.88;;;;;;;-6.08;100.00;99865.75;5116902;28;20083;-56
2023/12/06 02:40:47;;;;;;;8.68;4.20;;;;;;;-6.31;100.00;99862.09;5114223;28;20485;-57
2023/12/06 02:43:15;;;;;;;16.00;7.25;;;;;;;-5.76;100.00;99903.44;5116295;28;20055;-56
2023/12/06 02:45:42;;;;;;;13.65;6.90;;;;;;;-5.71;100.00;99884.81;5114201;28;20098;-58
2023/12/06 02:48:08;;;;;;;17.20;7.68;;;;;;;-5.71;100.00;99866.91;5116699;28;20087;-59
2023/12/06 02:50:34;;;;;;;16.13;7.13;;;;;;;-5.80;100.00;99852.34;5114126;28;20071;-59
2023/12/06 02:53:01;;;;;;;21.67;7.88;;;;;;;-5.80;100.00;99835.50;5112606;28;20087;-56
2023/12/06 02:55:27;;;;;;;17.60;7.82;;;;;;;-6.05;100.00;99834.03;5115598;28;20106;-57
2023/12/06 02:57:54;;;;;;;16.35;8.23;;;;;;;-5.79;100.00;99851.31;5114004;28;20205;-60
2023/12/06 03:00:21;;;;;;;19.45;8.25;;;;;;;-5.73;100.00;99844.16;5116215;28;20087;-57
2023/12/06 03:02:47;;;;;;;22.77;8.85;;;;;;;-5.80;100.00;99806.13;5113921;28;20056;-54
2023/12/06 03:05:13;;;;;;;19.35;8.30;;;;;;;-5.78;100.00;99793.34;5116415;28;20358;-60
2023/12/06 03:07:40;;;;;;;21.33;10.27;;;;;;;-5.85;100.00;99822.88;5113944;28;20164;-57
2023/12/06 03:10:07;;;;;;;23.08;9.30;;;;;;;-5.75;100.00;99823.06;5116232;28;20140;-56
2023/12/06 03:12:33;;;;;;;14.18;6.88;;;;;;;-5.74;100.00;99792.63;5116305;28;20055;-61
2023/12/06 03:15:00;;;;;;;17.85;8.77;;;;;;;-6.11;100.00;99781.63;5120073;28;20048;-54
2023/12/06 03:17:27;;;;;;;22.35;9.38;;;;;;;-5.85;100.00;99825.56;5117329;28;20413;-56
2023/12/06 03:19:53;;;;;;;19.02;8.25;;;;;;;-5.81;100.00;99849.91;5119620;28;20090;-57
2023/12/06 03:22:19;;;;;;;18.88;8.93;;;;;;;-5.97;100.00;99854.19;5117631;28;20447;-55
2023/12/06 03:24:46;;;;;;;11.85;5.75;;;;;;;-5.68;100.00;99865.63;5117388;28;20087;-61
2023/12/06 03:27:12;;;;;;;25.42;10.07;;;;;;;-5.98;100.00;99840.03;5119346;28;20393;-58
2023/12/06 03:29:39;;;;;;;20.45;8.05;;;;;;;-6.01;100.00;99847.72;5117306;28;20362;-59
2023/12/06 03:32:05;;;;;;;17.95;7.22;;;;;;;-6.08;100.00;99869.22;5119312;28;20147;-56
2023/12/06 03:34:32;;;;;;;21.52;7.60;;;;;;;-5.98;100.00;99879.28;5117112;28;20097;-57
2023/12/06 03:36:59;;;;;;;18.92;7.70;;;;;;;-5.91;100.00;99878.06;5119467;28;20108;-59
2023/12/06 03:39:26;;;;;;;21.42;8.15;;;;;;;-5.74;100.00;99875.41;5117307;28;20055;-54
2023/12/06 03:41:52;;;;;;;17.73;8.05;;;;;;;-5.86;100.00;99873.84;5119456;28;20055;-58
2023/12/06 03:44:18;;;;;;;16.33;7.05;;;;;;;-6.10;100.00;99887.31;5116854;28;20427;-55
2023/12/06 03:46:44;;;;;;;13.57;6.90;;;;;;;-5.72;100.00;99924.06;5119549;28;20091;-59
2023/12/06 03:49:11;;;;;;;20.60;9.75;;;;;;;-5.90;100.00;99894.88;5116754;28;20134;-56
2023/12/06 03:51:38;;;;;;;17.25;6.78;;;;;;;-5.89;100.00;99907.19;5116783;28;20444;-60
2023/12/06 03:54:04;;;;;;;22.83;9.30;;;;;;;-6.07;100.00;99891.38;5102606;28;20087;-56
2023/12/06 03:56:31;;;;;;;20.30;7.65;;;;;;;-6.25;100.00;99900.38;5116627;28;20055;-55
2023/12/06 03:58:57;;;;;;;20.23;8.57;;;;;;;-5.96;100.00;99942.09;5118876;28;20503;-60
2023/12/06 04:01:24;;;;;;;20.58;8.75;;;;;;;-6.19;100.00;99963.50;5116617;28;20083;-59
2023/12/06 04:03:50;;;;;;;24.17;10.38;;;;;;;-6.03;100.00;99976.13;5119427;28;20060;-58
2023/12/06 04:06:16;;;;;;;20.05;8.48;;;;;;;-6.06;100.00;99997.13;5116686;28;20052;-57
2023/12/06 04:08:43;;;;;;;21.60;8.38;;;;;;;-6.17;100.00;99994.22;5118995;28;20321;-60
2023/12/06 04:11:10;;;;;;;19.48;8.95;;;;;;;-5.96;100.00;100010.69;5116553;28;20094;-57
2023/12/06 04:13:36;;;;;;;19.52;8.95;;;;;;;-5.89;100.00;99998.00;5118846;28;20059;-54
2023/12/06 04:16:04;;;;;;;12.75;6.95;;;;;;;-6.01;100.00;99987.34;5116386;28;20079;-60
2023/12/06 04:18:30;;;;;;;28.65;9.88;;;;;;;-5.92;100.00;99983.25;5117800;28;20055;-56
2023/12/06 04:20:57;;;;;;;18.88;7.55;;;;;;;-6.06;100.00;99975.78;5117551;28;20061;-59
2023/12/06 04:23:23;;;;;;;20.38;7.90;;;;;;;-6.19;100.00;99988.31;5115176;28;20056;-56
2023/12/06 04:25:50;;;;;;;17.67;7.10;;;;;;;-6.30;100.00;100013.16;5118674;28;20079;-59
2023/12/06 04:28:16;;;;;;;19.40;8.23;;;;;;;-6.36;100.00;100024.78;5116128;28;20142;-55
2023/12/06 04:30:43;;;;;;;19.52;7.57;;;;;;;-6.17;100.00;100046.78;5118467;28;20079;-58
2023/12/06 04:33:09;;;;;;;19.42;8.02;;;;;;;-6.04;100.00;100053.75;5116173;28;20120;-58
2023/12/06 04:35:35;;;;;;;22.05;8.85;;;;;;;-6.04;100.00;100040.41;5118555;28;20400;-57
2023/12/06 04:38:01;;;;;;;20.52;8.15;;;;;;;-6.30;100.00;100050.50;5115954;28;20225;-59
2023/12/06 04:40:28;;;;;;;18.58;8.77;;;;;;;-5.89;100.00;100070.09;5118466;28;20052;-56
2023/12/06 04:42:55;;;;;;;14.38;5.50;;;;;;;-5.84;100.00;100064.84;5115674;28;20059;-56
2023/12/06 04:45:21;;;;;;;18.45;8.20;;;;;;;-5.89;100.00;100066.59;5118388;28;20113;-57
2023/12/06 04:47:49;;;;;;;17.65;8.40;;;;;;;-5.99;100.00;100061.88;5117883;28;20082;-59
2023/12/06 04:50:15;;;;;;;20.65;8.00;;;;;;;-5.86;100.00;100076.78;5115632;28;20406;-56
2023/12/06 04:52:41;;;;;;;18.48;9.63;;;;;;;-5.70;100.00;100057.38;5117952;28;20378;-60
2023/12/06 04:55:08;;;;;;;21.30;9.10;;;;;;;-5.84;100.00;100032.78;5115394;28;20087;-55
2023/12/06 04:57:35;;;;;;;23.58;8.77;;;;;;;-5.66;100.00;100026.50;5117879;28;20091;-60
2023/12/06 05:00:04;;;;;;;19.83;9.38;;;;;;;-5.96;100.00;99997.34;5115505;28;20052;-56
2023/12/06 05:02:30;;;;;;;22.77;9.38;;;;;;;-5.72;100.00;100025.56;5117781;28;20146;-60
2023/12/06 05:04:57;;;;;;;14.68;6.32;;;;;;;-5.65;100.00;100011.28;5115197;28;20110;-58
2023/12/06 05:07:23;;;;;;;17.05;8.20;;;;;;;-5.56;100.00;100018.66;5117726;28;20062;-54
2023/12/06 05:09:49;;;;;;;15.88;7.60;;;;;;;-5.68;100.00;99999.19;5115479;28;20056;-60
2023/12/06 05:12:16;;;;;;;15.63;7.63;;;;;;;-5.61;100.00;100007.88;5117738;28;20417;-55
2023/12/06 05:14:42;;;;;;;21.33;9.40;;;;;;;-5.82;100.00;99992.50;5115123;28;20056;-55
2023/12/06 05:17:10;;;;;;;22.05;9.85;;;;;;;-6.02;100.00;100006.28;5115163;28;20401;-61
2023/12/06 05:19:37;;;;;;;20.80;9.55;;;;;;;-5.68;100.00;100044.59;5101172;28;20055;-61
2023/12/06 05:22:03;;;;;;;24.20;10.15;;;;;;;-5.90;100.00;100036.41;5115087;28;20094;-55
2023/12/06 05:24:30;;;;;;;14.70;7.68;;;;;;;-5.82;100.00;100036.03;5117523;28;20055;-56
2023/12/06 05:26:56;;;;;;;11.57;6.30;;;;;;;-5.91;100.00;100002.75;5115184;28;20117;-58
2023/12/06 05:29:22;;;;;;;20.00;8.38;;;;;;;-5.71;100.00;100026.38;5117238;28;20055;-60
2023/12/06 05:31:49;;;;;;;23.38;9.63;;;;;;;-5.55;100.00;100027.50;5115045;28;20130;-55
2023/12/06 05:34:16;;;;;;;14.27;6.38;;;;;;;-5.83;100.00;100009.56;5117027;28;20091;-59
2023/12/06 05:36:42;;;;;;;21.48;9.63;;;;;;;-5.68;100.00;100026.72;5114914;28;20178;-55
2023/12/06 05:39:10;;;;;;;25.48;9.63;;;;;;;-5.80;100.00;100001.88;5117459;28;20113;-56
2023/12/06 05:41:36;;;;;;;20.27;8.85;;;;;;;-5.74;100.00;100003.63;5114793;28;20146;-56
2023/12/06 05:44:05;;;;;;;19.45;9.32;;;;;;;-5.68;100.00;100009.88;5116066;28;20062;-56
2023/12/06 05:46:31;;;;;;;24.48;8.30;;;;;;;-5.76;100.00;100010.25;5116705;28;20056;-56
2023/12/06 05:48:58;;;;;;;26.10;11.55;;;;;;;-5.61;100.00;100010.53;5114718;28;20060;-56
2023/12/06 05:51:25;;;;;;;21.08;9.13;;;;;;;-5.81;100.00;99999.47;5117307;28;20047;-60
2023/12/06 05:53:52;;;;;;;17.90;8.95;;;;;;;-5.96;100.00;100032.84;5114726;28;20055;-55
2023/12/06 05:56:18;;;;;;;20.33;9.02;;;;;;;-5.73;100.00;100063.19;5116641;28;20062;-59
2023/12/06 05:58:44;;;;;;;23.80;9.00;;;;;;;-5.61;100.00;100073.84;5114690;28;20158;-55
2023/12/06 06:01:11;;;;;;;28.45;11.18;;;;;;;-5.66;100.00;100061.22;5116906;28;20051;-58
2023/12/06 06:03:37;;;;;;;19.27;8.25;;;;;;;-5.54;100.00;100048.63;5114580;28;20055;-61
2023/12/06 06:06:08;;;;;;;18.67;8.10;;;;;;;-5.68;100.00;100026.72;5116885;28;20086;-57
2023/12/06 06:08:35;;;;;;;26.10;12.60;;;;;;;-5.58;100.00;100042.13;5114478;28;20082;-57
2023/12/06 06:11:04;;;;;;;29.40;11.18;;;;;;;-5.59;100.00;100016.47;5116108;28;20401;-56
2023/12/06 06:13:30;;;;;;;26.80;10.35;;;;;;;-5.50;100.00;100025.75;5115962;28;20055;-55
2023/12/06 06:15:57;;;;;;;21.33;9.60;;;;;;;-5.34;100.00;100026.81;5114224;28;20104;-55
2023/12/06 06:18:24;;;;;;;30.75;10.52;;;;;;;-5.48;100.00;99999.56;5115942;28;20051;-58
2023/12/06 06:20:51;;;;;;;19.05;9.02;;;;;;;-5.24;100.00;100024.31;5113937;28;20051;-60
2023/12/06 06:23:17;;;;;;;23.65;10.75;;;;;;;-5.28;100.00;99991.13;5116582;28;20397;-56
2023/12/06 06:25:44;;;;;;;23.40;9.68;;;;;;;-5.28;100.00;99975.09;5114274;28;20337;-61
2023/12/06 06:28:10;;;;;;;20.77;8.50;;;;;;;-5.50;100.00;99936.72;5116494;28;20056;-53
2023/12/06 06:30:37;;;;;;;18.60;8.88;;;;;;;-5.51;100.00;99946.63;5114204;28;20055;-59
2023/12/06 06:33:03;;;;;;;25.02;10.57;;;;;;;-5.26;100.00;99969.50;5116500;28;20086;-60
2023/12/06 06:35:30;;;;;;;18.73;9.20;;;;;;;-5.23;100.00;99953.78;5114038;28;20063;-59
2023/12/06 06:37:56;;;;;;;21.48;9.48;;;;;;;-5.46;100.00;99936.03;5116341;28;20089;-56
2023/12/06 06:40:22;;;;;;;22.42;10.35;;;;;;;-5.33;100.00;99942.09;5114548;28;20066;-60
2023/12/06 06:42:50;;;;;;;22.92;8.93;;;;;;;-5.42;100.00;99931.00;5114257;28;20113;-59
2023/12/06 06:45:16;;;;;;;26.80;10.13;;;;;;;-5.22;100.00;99939.38;5116117;28;20047;-58
2023/12/06 06:47:42;;;;;;;28.67;14.32;;;;;;;-5.34;100.00;99911.09;5116752;28;20062;-59
2023/12/06 06:50:09;;;;;;;23.02;9.20;;;;;;;-5.40;100.00;99934.25;5119766;28;20436;-55
2023/12/06 06:52:36;;;;;;;30.48;12.00;;;;;;;-5.22;100.00;99942.03;5117366;28;20058;-55
2023/12/06 06:55:03;;;;;;;15.48;7.90;;;;;;;-5.33;100.00;99934.91;5119860;28;20055;-58
2023/12/06 06:57:29;;;;;;;22.10;9.85;;;;;;;-5.36;100.00;99911.34;5117457;28;20113;-57
2023/12/06 06:59:56;;;;;;;22.92;10.13;;;;;;;-5.34;100.00;99905.75;5119635;28;20397;-62
2023/12/06 07:02:23;;;;;;;23.92;10.60;;;;;;;-5.12;100.00;99929.91;5117478;28;20051;-58
2023/12/06 07:04:51;;;;;;;24.88;9.48;;;;;;;-4.95;100.00;99932.56;5119867;28;20048;-58
2023/12/06 07:07:18;;;;;;;25.35;12.18;;;;;;;-5.16;100.00;99891.31;5117207;28;20062;-61
2023/12/06 07:09:44;;;;;;;27.67;11.13;;;;;;;-5.12;100.00;99898.63;5117264;28;20151;-55
2023/12/06 07:12:11;;;;;;;24.25;11.07;;;;;;;-5.05;100.00;99880.56;5119260;28;20059;-57
2023/12/06 07:14:37;;;;;;;24.88;11.52;;;;;;;-5.14;100.00;99870.50;5116990;28;20073;-60
2023/12/06 07:17:04;;;;;;;20.80;9.35;;;;;;;-5.14;100.00;99867.84;5119573;28;20086;-55
2023/12/06 07:19:31;;;;;;;16.30;7.65;;;;;;;-5.19;100.00;99857.09;5117117;28;20051;-54
2023/12/06 07:21:58;;;;;;;19.77;8.23;;;;;;;-5.34;100.00;99866.47;5119421;28;20062;-60
2023/12/06 07:24:24;;;;;;;17.67;8.35;;;;;;;-5.44;100.00;99887.69;5117247;28;20070;-58
2023/12/06 07:26:51;;;;;;;25.15;10.55;;;;;;;-5.36;100.00;99926.56;5119566;28;20055;-62
2023/12/06 07:29:17;;;;;;;21.83;8.93;;;;;;;-5.54;100.00;99936.41;5117305;28;20103;-59
2023/12/06 07:31:45;;;;;;;19.30;8.85;;;;;;;-5.23;100.00;99967.16;5119646;28;20087;-64
2023/12/06 07:34:12;;;;;;;23.85;9.32;;;;;;;-5.36;100.00;99966.66;5116711;28;20064;-64
2023/12/06 07:36:38;;;;;;;22.58;9.60;;;;;;;-5.20;100.00;99976.53;5117536;28;20337;-61
2023/12/06 07:39:05;;;;;;;18.40;9.00;;;;;;;-5.22;100.00;99967.97;5118695;28;20083;-61
2023/12/06 07:41:33;;;;;;;15.70;7.28;;;;;;;-4.90;100.00;99968.22;5117009;28;20134;-60
2023/12/06 07:43:59;;;;;;;20.23;10.00;;;;;;;-4.90;100.00;99946.81;5119197;28;20066;-61
2023/12/06 07:46:26;;;;;;;25.48;10.95;;;;;;;-4.93;100.00;99922.44;5116691;28;20458;-63
2023/12/06 07:48:52;;;;;;;28.92;11.02;;;;;;;-4.90;100.00;99903.22;5118742;28;20066;-54
2023/12/06 07:51:19;;;;;;;19.83;9.27;;;;;;;-4.76;100.00;99896.50;5116423;28;20440;-56
2023/12/06 07:53:45;;;;;;;24.05;11.15;;;;;;;-4.96;100.00;99886.31;5118764;28;20410;-62
2023/12/06 07:56:12;;;;;;;22.60;9.75;;;;;;;-4.87;100.00;99875.97;5116512;28;20056;-64
2023/12/06 07:58:39;;;;;;;20.50;10.13;;;;;;;-4.51;100.00;99872.72;5117585;28;20052;-64
2023/12/06 08:01:05;;;;;;;19.00;9.20;;;;;;;-4.84;100.00;99805.97;5116417;28;20086;-59
2023/12/06 08:03:32;;;;;;;22.08;9.32;;;;;;;-4.81;100.00;99800.91;5118097;28;20417;-58
2023/12/06 08:05:59;;;;;;;23.35;9.38;;;;;;;-4.72;100.00;99798.63;5117907;28;20066;-61
2023/12/06 08:08:27;;;;;;;20.75;9.57;;;;;;;-4.49;100.00;99818.97;5116528;28;20406;-60
2023/12/06 08:10:53;;;;;;;23.13;9.55;;;;;;;-4.52;100.00;99764.09;5118371;28;20200;-64
2023/12/06 08:13:20;;;;;;;24.40;11.27;;;;;;;-4.44;100.00;99725.34;5116086;28;20067;-63
2023/12/06 08:15:46;;;;;;;27.30;11.10;;;;;;;-4.49;100.00;99687.84;5118532;28;20051;-62
2023/12/06 08:18:12;;;;;;;25.95;10.95;;;;;;;-4.48;100.00;99659.22;5116456;28;20139;-61
2023/12/06 08:20:39;;;;;;;20.42;10.23;;;;;;;-4.75;100.00;99663.50;5118712;28;20120;-61
2023/12/06 08:23:05;;;;;;;25.65;10.20;;;;;;;-4.45;100.00;99696.97;5116195;28;20060;-60
2023/12/06 08:25:32;;;;;;;24.42;10.68;;;;;;;-4.56;100.00;99661.28;5118892;28;20062;-60
2023/12/06 08:27:59;;;;;;;22.77;11.80;;;;;;;-4.61;100.00;99655.88;5116015;28;20083;-57
2023/12/06 08:30:26;;;;;;;28.80;11.10;;;;;;;-4.50;100.00;99660.28;5118664;28;20142;-62
2023/12/06 08:32:53;;;;;;;26.73;12.00;;;;;;;-4.73;100.00;99668.63;5118018;28;20055;-58
2023/12/06 08:35:19;;;;;;;28.92;11.18;;;;;;;-4.48;100.00;99712.75;5116552;28;20056;-61
2023/12/06 08:37:46;;;;;;;18.80;9.18;;;;;;;-4.64;100.00;99693.03;5118300;28;20295;-59
2023/12/06 08:40:13;;;;;;;24.05;10.07;;;;;;;-4.45;100.00;99710.38;5115873;28;20059;-60
2023/12/06 08:42:40;;;;;;;23.73;10.07;;;;;;;-4.39;100.00;99714.72;5118137;28;20070;-61
2023/12/06 08:45:08;;;;;;;27.75;12.35;;;;;;;-4.36;100.00;99663.34;5115886;28;20194;-58
2023/12/06 08:47:35;;;;;;;19.85;9.88;;;;;;;-4.09;100.00;99641.88;5118203;28;20051;-58
2023/12/06 08:50:04;;;;;;;23.40;9.45;;;;;;;-4.38;100.00;99589.72;5115909;28;20128;-59
2023/12/06 08:52:31;;;;;;;22.00;9.23;;;;;;;-4.05;100.00;99588.59;5118163;28;20059;-62
2023/12/06 08:54:57;;;;;;;20.90;9.65;;;;;;;-4.26;100.00;99572.41;5115662;28;20431;-59
2023/12/06 08:57:23;;;;;;;19.50;8.93;;;;;;;-4.68;100.00;99582.25;5118058;28;20102;-60
2023/12/06 08:59:50;;;;;;;23.10;8.95;;;;;;;-4.54;100.00;99634.28;5115304;28;20436;-60
2023/12/06 09:02:16;;;;;;;21.42;9.02;;;;;;;-4.30;100.00;99665.00;5115276;28;20052;-61
2023/12/06 09:04:43;;;;;;;21.35;9.18;;;;;;;-4.27;100.00;99634.22;5117685;28;20117;-60
2023/12/06 09:07:09;;;;;;;16.38;8.40;;;;;;;-4.36;100.00;99609.81;5115538;28;20475;-59
2023/12/06 09:09:35;;;;;;;20.45;9.60;;;;;;;-4.27;100.00;99626.19;5116964;28;20140;-61
2023/12/06 09:12:02;;;;;;;21.50;8.98;;;;;;;-4.40;100.00;99591.81;5115539;28;20052;-58
2023/12/06 09:14:28;;;;;;;18.00;8.27;;;;;;;-4.04;100.00;99607.09;5117463;28;20494;-57
2023/12/06 09:16:55;;;;;;;21.10;8.18;;;;;;;-4.17;100.00;99579.94;5115265;28;20337;-60
2023/12/06 09:19:22;;;;;;;18.45;8.32;;;;;;;-4.02;100.00;99577.38;5117526;28;20047;-57
2023/12/06 09:21:48;;;;;;;13.27;6.57;;;;;;;-4.18;100.00;99527.47;5115029;28;20397;-60
2023/12/06 09:24:14;;;;;;;20.63;8.55;;;;;;;-4.29;100.00;99530.09;5117458;28;20052;-58
2023/12/06 09:26:41;;;;;;;20.20;8.93;;;;;;;-4.42;100.00;99543.13;5115214;28;20052;-57
2023/12/06 09:29:09;;;;;;;20.75;7.93;;;;;;;-4.20;100.00;99567.06;5113583;28;20051;-62
2023/12/06 09:31:36;;;;;;;18.77;8.57;;;;;;;-4.11;100.00;99552.94;5116795;28;20085;-61
2023/12/06 09:34:04;;;;;;;24.67;8.73;;;;;;;-4.35;100.00;99555.22;5115068;28;20152;-55
2023/12/06 09:36:31;;;;;;;21.83;9.82;;;;;;;-4.19;100.00;99600.84;5117036;28;20052;-58
2023/12/06 09:38:58;;;;;;;17.77;8.55;;;;;;;-4.28;100.00;99608.53;5114759;28;20055;-56
2023/12/06 09:41:27;;;;;;;24.38;10.40;;;;;;;-3.97;100.00;99617.56;5117118;28;20143;-60
2023/12/06 09:43:54;;;;;;;20.80;8.77;;;;;;;-3.91;100.00;99581.72;5114847;28;20102;-55
2023/12/06 09:46:21;;;;;;;19.98;9.82;;;;;;;-3.72;100.00;99549.94;5117269;28;20083;-58
2023/12/06 09:48:47;;;;;;;22.55;9.68;;;;;;;-3.93;100.00;99508.03;5114730;28;20055;-57
2023/12/06 09:51:15;;;;;;;22.98;9.07;;;;;;;-3.77;100.00;99501.69;5117214;28;20097;-57
2023/12/06 09:53:42;;;;;;;21.30;9.73;;;;;;;-3.60;100.00;99458.59;5114580;28;20051;-55
2023/12/06 09:56:10;;;;;;;22.92;9.07;;;;;;;-3.64;100.00;99449.50;5113356;28;20409;-59
2023/12/06 09:58:36;;;;;;;17.45;7.70;;;;;;;-4.01;100.00;99431.69;5116571;28;20435;-54
2023/12/06 10:01:03;;;;;;;20.02;8.13;;;;;;;-3.70;100.00;99486.16;5114578;28;20075;-59
2023/12/06 10:03:29;;;;;;;17.70;9.13;;;;;;;-3.80;100.00;99484.28;5116775;28;20136;-57
2023/12/06 10:05:56;;;;;;;19.95;9.43;;;;;;;-3.52;100.00;99468.03;5114515;28;20093;-59
2023/12/06 10:08:24;;;;;;;22.63;10.23;;;;;;;-3.91;100.00;99439.75;5116706;28;20416;-60
2023/12/06 10:11:00;;;;;;;17.92;8.75;;;;;;;-3.92;100.00;99448.88;5114300;28;20083;-56
2023/12/06 10:13:31;;;;;;;18.75;8.95;;;;;;;-4.13;100.00;99450.69;5116626;28;20147;-57
2023/12/06 10:15:58;;;;;;;17.98;9.30;;;;;;;-4.03;100.00;99516.88;5114323;28;20120;-60
2023/12/06 10:18:25;;;;;;;12.68;7.35;;;;;;;-3.97;100.00;99560.53;5116772;28;20451;-56
2023/12/06 10:20:51;;;;;;;19.88;9.55;;;;;;;-3.90;100.00;99575.31;5113270;28;20474;-59
2023/12/06 10:23:17;;;;;;;17.27;8.48;;;;;;;-3.76;100.00;99601.66;5114449;28;20412;-54
2023/12/06 10:25:47;;;;;;;19.80;9.10;;;;;;;-3.78;100.00;99602.69;5116224;28;20124;-55
2023/12/06 10:28:13;;;;;;;20.40;9.27;;;;;;;-3.91;100.00;99619.22;5114306;28;20056;-58
2023/12/06 10:30:40;;;;;;;25.70;10.00;;;;;;;-4.47;100.00;99615.31;5116390;28;20063;-57
2023/12/06 10:33:07;;;;;;;21.83;9.88;;;;;;;-3.86;100.00;99693.47;5114123;28;20098;-54
2023/12/06 10:35:35;;;;;;;21.90;10.18;;;;;;;-3.91;100.00;99635.28;5116285;28;20052;-59
2023/12/06 10:38:03;;;;;;;16.95;8.30;;;;;;;-3.89;100.00;99606.41;5114055;28;20047;-59
2023/12/06 10:40:29;;;;;;;16.67;8.63;;;;;;;-3.65;100.00;99627.41;5116396;28;20058;-58
2023/12/06 10:43:01;;;;;;;24.77;9.60;;;;;;;-3.62;100.00;99598.22;5113949;28;20063;-56
2023/12/06 10:45:28;;;;;;;20.65;9.70;;;;;;;-3.68;100.00;99577.84;5116326;28;20056;-57
2023/12/06 10:47:56;;;;;;;19.48;9.30;;;;;;;-3.56;100.00;99580.31;5116136;28;20098;-61
2023/12/06 10:50:24;;;;;;;18.10;9.13;;;;;;;-3.51;100.00;99566.09;5113748;28;20398;-57
2023/12/06 10:52:51;;;;;;;18.52;9.13;;;;;;;-3.79;100.00;99552.88;5116279;28;20333;-60
2023/12/06 10:55:18;;;;;;;25.05;10.25;;;;;;;-4.01;100.00;99592.38;5114005;28;20385;-57
2023/12/06 10:57:47;;;;;;;20.08;9.02;;;;;;;-3.99;100.00;99654.53;5115939;28;20092;-54
2023/12/06 11:00:16;;;;;;;28.17;9.43;;;;;;;-3.66;100.00;99674.84;5113492;28;20055;-56
2023/12/06 11:02:42;;;;;;;19.95;7.95;;;;;;;-3.86;100.00;99655.97;5116018;28;20055;-58
2023/12/06 11:05:10;;;;;;;19.35;8.80;;;;;;;-3.91;100.00;99672.00;5113669;28;20048;-59
2023/12/06 11:07:48;;;;;;;16.25;8.02;;;;;;;-4.01;100.00;99691.47;5116225;28;20113;-59
2023/12/06 11:10:25;;;;;;;19.58;9.60;;;;;;;-3.71;100.00;99725.72;5113602;28;20059;-53
2023/12/06 11:13:03;;;;;;;20.25;8.18;;;;;;;-3.63;100.00;99745.88;5113728;28;20062;-58